Time;durP1;ratioP1;P1;durP2;ratioP2;P2;SDS_P1;SDS_P2;PMS_P1;PMS_P2;Temp;Humidity;BMP_temperature;BMP_pressure;BME280_temperature;BME280_humidity;BME280_pressure;Samples;Min_cycle;Max_cycle;Signal;HPM_P1;HPM_P2
2022/01/18 00:00:45;;;;;;;;;;;;;;;0.77;100.00;99275.83;1636815;86;20636;-83
2022/01/18 00:03:17;;;;;;;;;;;;;;;0.75;100.00;99269.87;1635529;86;20187;-83
2022/01/18 00:05:45;;;;;;;;;;;;;;;0.76;100.00;99283.17;1635541;86;22623;-82
2022/01/18 00:08:11;;;;;;;;;;;;;;;0.76;100.00;99283.99;1636627;86;26734;-83
2022/01/18 00:10:40;;;;;;;;;;;;;;;0.74;100.00;99278.47;1635773;85;24520;-82
2022/01/18 00:13:11;;;;;;;;;;;;;;;0.71;100.00;99287.09;1593476;87;20498;-83
2022/01/18 00:15:54;;;;;;;;;;;;;;;0.71;100.00;99291.41;1622929;87;24783;-83
2022/01/18 00:18:12;;;;;;;;;;;;;;;0.73;100.00;99291.78;1615634;86;21992;-83
2022/01/18 00:23:24;;;;;;;;;;;;;;;0.74;100.00;99293.92;1625242;87;24752;-83
2022/01/18 00:25:54;;;;;;;;;;;;;;;0.74;100.00;99301.22;1595489;87;20338;-83
2022/01/18 00:28:18;;;;;;;;;;;;;;;0.75;100.00;99308.52;1615883;87;24952;-83
2022/01/18 00:35:45;;;;;;;;;;;;;;;0.79;100.00;99308.44;1635944;86;25280;-84
2022/01/18 00:38:32;;;;;;;;;;;;;;;0.78;100.00;99304.16;1635590;87;20305;-83
2022/01/18 00:40:57;;;;;;;;;;;;;;;0.77;100.00;99314.03;1636448;86;25067;-83
2022/01/18 00:43:23;;;;;;;;;;;;;;;0.75;100.00;99318.38;1635893;87;22647;-83
2022/01/18 00:45:50;;;;;;;;;;;;;;;0.74;100.00;99315.83;1635803;87;26146;-83
2022/01/18 00:48:17;;;;;;;;;;;;;;;0.71;100.00;99311.56;1622041;87;24492;-83
2022/01/18 00:50:45;;;;;;;;;;;;;;;0.68;100.00;99314.63;1592331;88;20498;-84
2022/01/18 00:53:15;;;;;;;;;;;;;;;0.60;100.00;99312.16;1596695;88;24796;-83
2022/01/18 00:56:06;;;;;;;;;;;;;;;0.58;100.00;99315.66;1637351;85;22624;-83
2022/01/18 00:58:16;;;;;;;;;;;;;;;0.55;100.00;99320.84;1642972;86;26165;-84
2022/01/18 01:00:45;;;;;;;;;;;;;;;0.52;100.00;99323.04;1622112;87;24509;-83
2022/01/18 01:03:11;;;;;;;;;;;;;;;0.49;100.00;99325.67;1615210;86;20210;-83
2022/01/18 01:05:37;;;;;;;;;;;;;;;0.48;100.00;99324.41;1636970;86;25036;-83
2022/01/18 01:08:10;;;;;;;;;;;;;;;0.44;100.00;99326.16;1618384;88;22074;-83
2022/01/18 01:10:36;;;;;;;;;;;;;;;0.38;100.00;99328.38;1626291;86;26119;-84
2022/01/18 01:13:02;;;;;;;;;;;;;;;0.36;100.00;99337.87;1619916;88;24486;-83
2022/01/18 01:15:32;;;;;;;;;;;;;;;0.37;100.00;99342.16;1595244;88;20247;-83
2022/01/18 01:34:34;;;;;;;;;;;;;;;0.22;100.00;99336.38;1584454;90;22898;-83
2022/01/18 01:36:47;;;;;;;;;;;;;;;0.18;100.00;99335.55;1594508;90;26265;-83
2022/01/18 01:42:05;;;;;;;;;;;;;;;0.17;100.00;99348.00;1579541;90;20363;-83
2022/01/18 01:44:47;;;;;;;;;;;;;;;0.14;100.00;99350.63;1595279;89;24817;-83
2022/01/18 01:47:12;;;;;;;;;;;;;;;0.12;100.00;99347.20;1572443;90;20176;-83
2022/01/18 01:49:38;;;;;;;;;;;;;;;0.11;100.00;99351.11;1581798;89;26688;-83
2022/01/18 01:52:09;;;;;;;;;;;;;;;0.08;100.00;99358.85;1583938;90;24510;-83
2022/01/18 01:54:36;;;;;;;;;;;;;;;0.07;100.00;99356.71;1597663;88;20179;-83
2022/01/18 01:57:03;;;;;;;;;;;;;;;0.08;100.00;99360.99;1580207;90;25458;-82
2022/01/18 01:59:29;;;;;;;;;;;;;;;0.10;100.00;99364.84;1597476;89;21913;-82
2022/01/18 02:01:55;;;;;;;;;;;;;;;0.10;100.00;99368.27;1582309;90;25828;-82
2022/01/18 02:04:21;;;;;;;;;;;;;;;0.09;100.00;99365.27;1595311;89;24500;-82
2022/01/18 02:06:47;;;;;;;;;;;;;;;0.08;100.00;99364.86;1583209;89;20224;-82
2022/01/18 02:09:13;;;;;;;;;;;;;;;0.03;100.00;99365.35;1597297;89;24842;-82
2022/01/18 02:11:39;;;;;;;;;;;;;;;-0.01;100.00;99355.55;1597470;88;21982;-82
2022/01/18 02:14:07;;;;;;;;;;;;;;;-0.01;100.00;99352.97;1564161;91;26051;-82
2022/01/18 02:22:04;;;;;;;;;;;;;;;-0.03;100.00;99347.41;1600197;87;25630;-82
2022/01/18 02:24:30;;;;;;;;;;;;;;;-0.02;100.00;99353.84;1607061;89;22089;-82
2022/01/18 02:26:56;;;;;;;;;;;;;;;0.01;100.00;99351.64;1595228;89;26035;-82
2022/01/18 02:29:22;;;;;;;;;;;;;;;0.02;100.00;99348.64;1596093;90;24408;-82
2022/01/18 02:31:48;;;;;;;;;;;;;;;0.03;100.00;99350.34;1596504;90;20224;-83
2022/01/18 02:34:16;;;;;;;;;;;;;;;0.02;100.00;99344.34;1596958;88;20272;-82
2022/01/18 02:36:43;;;;;;;;;;;;;;;0.05;100.00;99340.47;1604284;88;22829;-82
2022/01/18 02:39:10;;;;;;;;;;;;;;;0.07;100.00;99345.56;1610300;87;26045;-82
2022/01/18 02:41:36;;;;;;;;;;;;;;;0.09;100.00;99340.83;1604902;88;24423;-82
2022/01/18 02:44:04;;;;;;;;;;;;;;;0.12;100.00;99347.20;1580303;90;20309;-82
2022/01/18 02:46:31;;;;;;;;;;;;;;;0.18;100.00;99344.98;1577949;90;24754;-83
2022/01/18 02:48:58;;;;;;;;;;;;;;;0.21;100.00;99347.11;1612621;89;21904;-83
2022/01/18 02:51:24;;;;;;;;;;;;;;;0.22;100.00;99342.34;1605277;88;27177;-83
2022/01/18 02:53:57;;;;;;;;;;;;;;;0.26;100.00;99346.60;1573794;90;24557;-82
2022/01/18 02:56:25;;;;;;;;;;;;;;;0.30;100.00;99352.11;1587113;90;20248;-82
2022/01/18 02:59:04;;;;;;;;;;;;;;;0.30;100.00;99348.25;1606168;88;24823;-83
2022/01/18 03:04:10;;;;;;;;;;;;;;;0.29;100.00;99355.98;1607510;89;26003;-83
2022/01/18 03:06:36;;;;;;;;;;;;;;;0.28;100.00;99359.43;1597501;89;24394;-83
2022/01/18 03:09:03;;;;;;;;;;;;;;;0.31;100.00;99363.27;1596662;90;20448;-83
2022/01/18 03:11:29;;;;;;;;;;;;;;;0.32;100.00;99370.97;1602270;88;25587;-83
2022/01/18 03:13:55;;;;;;;;;;;;;;;0.35;100.00;99364.91;1596574;88;20244;-83
2022/01/18 03:16:21;;;;;;;;;;;;;;;0.35;100.00;99365.77;1592527;88;26075;-83
2022/01/18 03:18:47;;;;;;;;;;;;;;;0.36;100.00;99368.77;1597528;88;24475;-83
2022/01/18 03:21:13;;;;;;;;;;;;;;;0.39;100.00;99377.72;1578665;89;20241;-83
2022/01/18 03:23:39;;;;;;;;;;;;;;;0.39;100.00;99376.43;1621592;86;24802;-83
2022/01/18 03:26:14;;;;;;;;;;;;;;;0.40;100.00;99377.28;1635824;87;22110;-83
2022/01/18 03:28:33;;;;;;;;;;;;;;;0.43;100.00;99382.41;1634779;86;26090;-83
2022/01/18 03:31:00;;;;;;;;;;;;;;;0.48;100.00;99386.20;1639170;86;25240;-83
2022/01/18 03:33:30;;;;;;;;;;;;;;;0.51;100.00;99390.86;1636005;86;20836;-83
2022/01/18 03:35:57;;;;;;;;;;;;;;;0.54;100.00;99384.83;1618306;86;25552;-83
2022/01/18 03:38:29;;;;;;;;;;;;;;;0.56;100.00;99391.64;1636135;86;22141;-83
2022/01/18 03:40:56;;;;;;;;;;;;;;;0.59;100.00;99396.77;1636218;86;26645;-83
2022/01/18 03:43:22;;;;;;;;;;;;;;;0.61;100.00;99398.02;1636069;87;25363;-82
2022/01/18 03:45:51;;;;;;;;;;;;;;;0.61;100.00;99396.72;1636334;86;20226;-83
2022/01/18 03:48:31;;;;;;;;;;;;;;;0.62;100.00;99395.85;1635015;86;24822;-83
2022/01/18 03:50:51;;;;;;;;;;;;;;;0.62;100.00;99391.56;1636695;86;22061;-83
2022/01/18 03:53:19;;;;;;;;;;;;;;;0.62;100.00;99392.84;1635576;87;26045;-83
2022/01/18 03:55:46;;;;;;;;;;;;;;;0.62;100.00;99395.85;1635676;87;24456;-84
2022/01/18 03:58:12;;;;;;;;;;;;;;;0.60;100.00;99399.73;1637256;86;20382;-82
2022/01/18 04:00:38;;;;;;;;;;;;;;;0.59;100.00;99406.22;1613625;87;24831;-82
2022/01/18 04:03:04;;;;;;;;;;;;;;;0.59;100.00;99404.49;1635306;87;21808;-83
2022/01/18 04:05:30;;;;;;;;;;;;;;;0.59;100.00;99400.63;1635898;87;26079;-83
2022/01/18 04:07:56;;;;;;;;;;;;;;;0.59;100.00;99398.48;1635371;86;24518;-83
2022/01/18 04:10:24;;;;;;;;;;;;;;;0.55;100.00;99400.23;1635072;87;20293;-83
2022/01/18 04:12:50;;;;;;;;;;;;;;;0.55;100.00;99404.53;1636076;86;24790;-83
2022/01/18 04:15:17;;;;;;;;;;;;;;;0.54;100.00;99408.86;1635622;86;22079;-83
2022/01/18 04:17:52;;;;;;;;;;;;;;;0.55;100.00;99417.41;1635721;86;26057;-82
2022/01/18 04:28:43;;;;;;;;;;;;;;;0.64;100.00;99431.47;1630984;86;22013;-83
2022/01/18 04:31:09;;;;;;;;;;;;;;;0.64;100.00;99441.77;1630337;86;26094;-83
2022/01/18 04:33:36;;;;;;;;;;;;;;;0.62;100.00;99440.92;1633653;86;23977;-83
2022/01/18 04:36:03;;;;;;;;;;;;;;;0.59;100.00;99438.41;1632130;87;20601;-83
2022/01/18 04:38:29;;;;;;;;;;;;;;;0.59;100.00;99444.41;1634069;86;24815;-83
2022/01/18 04:41:00;;;;;;;;;;;;;;;0.57;100.00;99459.45;1631648;86;22056;-82
2022/01/18 04:43:38;;;;;;;;;;;;;;;0.57;100.00;99462.03;1620375;87;26085;-82
2022/01/18 04:48:40;;;;;;;;;;;;;;;0.56;100.00;99461.61;1630177;87;20321;-83
2022/01/18 04:51:07;;;;;;;;;;;;;;;0.56;100.00;99470.62;1624520;87;25597;-83
2022/01/18 04:53:35;;;;;;;;;;;;;;;0.53;100.00;99474.55;1617266;87;21703;-83
2022/01/18 04:56:06;;;;;;;;;;;;;;;0.49;100.00;99481.47;1628492;87;26057;-83
2022/01/18 04:58:31;;;;;;;;;;;;;;;0.49;100.00;99484.04;1626635;87;24502;-83
2022/01/18 05:00:59;;;;;;;;;;;;;;;0.50;100.00;99477.14;1624592;87;20262;-83
2022/01/18 05:03:26;;;;;;;;;;;;;;;0.47;100.00;99475.47;1628838;87;24833;-82
2022/01/18 05:05:56;;;;;;;;;;;;;;;0.46;100.00;99481.92;1624756;87;22176;-82
2022/01/18 05:08:20;;;;;;;;;;;;;;;0.42;100.00;99486.27;1626612;87;26832;-83
2022/01/18 05:10:53;;;;;;;;;;;;;;;0.38;100.00;99494.44;1625863;87;24600;-82
2022/01/18 05:21:30;;;;;;;;;;;;;;;0.40;100.00;99494.00;1600907;88;26109;-83
2022/01/18 05:23:54;;;;;;;;;;;;;;;0.39;100.00;99498.73;1606796;87;24128;-82
2022/01/18 05:26:21;;;;;;;;;;;;;;;0.39;100.00;99505.16;1592745;88;20212;-82
2022/01/18 05:28:47;;;;;;;;;;;;;;;0.39;100.00;99494.02;1592364;88;24790;-83
2022/01/18 05:31:13;;;;;;;;;;;;;;;0.39;100.00;99496.16;1623496;87;21944;-83
2022/01/18 05:33:41;;;;;;;;;;;;;;;0.37;100.00;99503.50;1622970;87;25913;-83
2022/01/18 05:36:07;;;;;;;;;;;;;;;0.36;100.00;99496.63;1618477;87;24511;-83
2022/01/18 05:38:33;;;;;;;;;;;;;;;0.34;100.00;99490.20;1625049;87;20293;-83
2022/01/18 05:41:02;;;;;;;;;;;;;;;0.32;100.00;99491.97;1600382;87;20252;-83
2022/01/18 05:43:31;;;;;;;;;;;;;;;0.30;100.00;99489.84;1621775;87;22048;-83
2022/01/18 05:45:57;;;;;;;;;;;;;;;0.26;100.00;99494.61;1623019;87;26282;-83
2022/01/18 05:48:25;;;;;;;;;;;;;;;0.25;100.00;99499.34;1622595;87;24675;-83
2022/01/18 05:50:54;;;;;;;;;;;;;;;0.25;100.00;99503.20;1624712;87;20226;-83
2022/01/18 05:53:19;;;;;;;;;;;;;;;0.27;100.00;99504.48;1624040;87;24188;-82
2022/01/18 05:55:45;;;;;;;;;;;;;;;0.28;100.00;99504.87;1625551;87;21933;-82
2022/01/18 05:58:12;;;;;;;;;;;;;;;0.26;100.00;99509.20;1622505;87;26221;-82
2022/01/18 06:00:40;;;;;;;;;;;;;;;0.27;100.00;99510.91;1627769;87;24435;-83
2022/01/18 06:03:13;;;;;;;;;;;;;;;0.26;100.00;99507.48;1619390;87;20191;-83
2022/01/18 06:08:18;;;;;;;;;;;;;;;0.23;100.00;99513.94;1619446;87;22851;-82
2022/01/18 06:10:45;;;;;;;;;;;;;;;0.25;100.00;99522.94;1624495;87;26187;-82
2022/01/18 06:13:12;;;;;;;;;;;;;;;0.23;100.00;99519.08;1618123;87;24400;-83
2022/01/18 06:15:39;;;;;;;;;;;;;;;0.19;100.00;99514.84;1623507;87;20551;-83
2022/01/18 06:18:07;;;;;;;;;;;;;;;0.18;100.00;99520.00;1619576;87;24874;-82
2022/01/18 06:20:34;;;;;;;;;;;;;;;0.16;100.00;99516.18;1624867;86;22006;-83
2022/01/18 06:23:00;;;;;;;;;;;;;;;0.15;100.00;99513.19;1597091;88;26010;-83
2022/01/18 06:25:26;;;;;;;;;;;;;;;0.15;100.00;99514.47;1600988;88;20477;-83
2022/01/18 06:27:53;;;;;;;;;;;;;;;0.13;100.00;99520.05;1603383;88;20529;-83
2022/01/18 06:30:20;;;;;;;;;;;;;;;0.13;100.00;99532.06;1641226;86;25388;-83
2022/01/18 06:32:46;;;;;;;;;;;;;;;0.17;100.00;99534.59;1632839;87;21943;-82
2022/01/18 06:35:13;;;;;;;;;;;;;;;0.18;100.00;99539.30;1628386;87;26048;-82
2022/01/18 06:37:40;;;;;;;;;;;;;;;0.17;100.00;99547.45;1600245;88;24602;-82
2022/01/18 06:40:08;;;;;;;;;;;;;;;0.17;100.00;99547.45;1641970;85;20317;-82
2022/01/18 06:42:34;;;;;;;;;;;;;;;0.17;100.00;99547.89;1642104;85;24975;-83
2022/01/18 06:45:00;;;;;;;;;;;;;;;0.20;100.00;99553.02;1624632;87;22157;-84
2022/01/18 06:47:26;;;;;;;;;;;;;;;0.22;100.00;99555.16;1625613;87;25979;-84
2022/01/18 06:49:52;;;;;;;;;;;;;;;0.20;100.00;99552.59;1627876;86;24406;-83
2022/01/18 06:52:19;;;;;;;;;;;;;;;0.19;100.00;99559.89;1609928;87;20217;-83
2022/01/18 06:54:45;;;;;;;;;;;;;;;0.19;100.00;99557.31;1628847;87;24713;-82
2022/01/18 06:57:11;;;;;;;;;;;;;;;0.17;100.00;99559.47;1624645;87;21948;-82
2022/01/18 06:59:37;;;;;;;;;;;;;;;0.16;100.00;99562.51;1626133;87;26084;-82
2022/01/18 07:02:05;;;;;;;;;;;;;;;0.18;100.00;99560.75;1632822;85;24409;-83
2022/01/18 07:04:31;;;;;;;;;;;;;;;0.20;100.00;99556.45;1630873;86;20322;-83
2022/01/18 07:06:58;;;;;;;;;;;;;;;0.21;100.00;99567.60;1625262;85;24660;-83
2022/01/18 07:09:24;;;;;;;;;;;;;;;0.20;100.00;99568.47;1622317;87;21978;-83
2022/01/18 07:11:51;;;;;;;;;;;;;;;0.21;100.00;99575.33;1624202;87;25962;-83
2022/01/18 07:14:17;;;;;;;;;;;;;;;0.24;100.00;99580.42;1623850;87;24492;-83
2022/01/18 07:16:43;;;;;;;;;;;;;;;0.26;100.00;99586.42;1611990;87;20320;-83
2022/01/18 07:19:10;;;;;;;;;;;;;;;0.27;100.00;99593.28;1630544;87;25506;-83
2022/01/18 07:21:36;;;;;;;;;;;;;;;0.27;100.00;99593.28;1619915;88;22095;-83
2022/01/18 07:24:15;;;;;;;;;;;;;;;0.29;100.00;99597.97;1625314;87;25954;-82
2022/01/18 07:26:33;;;;;;;;;;;;;;;0.29;100.00;99602.68;1623960;87;24491;-82
2022/01/18 07:28:59;;;;;;;;;;;;;;;0.30;100.00;99608.69;1629457;86;20153;-82
2022/01/18 07:31:26;;;;;;;;;;;;;;;0.30;100.00;99608.26;1614532;87;24740;-83
2022/01/18 07:33:52;;;;;;;;;;;;;;;0.31;100.00;99603.97;1619323;87;22846;-83
2022/01/18 07:36:18;;;;;;;;;;;;;;;0.33;100.00;99606.06;1622295;87;26166;-83
2022/01/18 07:38:44;;;;;;;;;;;;;;;0.34;100.00;99602.63;1624607;87;24435;-84
2022/01/18 07:41:12;;;;;;;;;;;;;;;0.32;100.00;99602.67;1621503;87;20261;-83
2022/01/18 07:43:40;;;;;;;;;;;;;;;0.32;100.00;99610.39;1627568;87;24864;-83
2022/01/18 07:46:06;;;;;;;;;;;;;;;0.35;100.00;99605.63;1620392;87;21939;-83
2022/01/18 07:48:32;;;;;;;;;;;;;;;0.34;100.00;99616.36;1622399;87;25975;-83
2022/01/18 07:50:58;;;;;;;;;;;;;;;0.35;100.00;99615.50;1624897;87;24409;-83
2022/01/18 07:53:25;;;;;;;;;;;;;;;0.37;100.00;99611.63;1619822;86;20884;-83
2022/01/18 07:55:51;;;;;;;;;;;;;;;0.38;100.00;99621.89;1596195;88;24743;-83
2022/01/18 07:58:18;;;;;;;;;;;;;;;0.38;100.00;99627.03;1623363;86;22038;-83
2022/01/18 08:00:44;;;;;;;;;;;;;;;0.39;100.00;99630.04;1622311;87;26044;-83
2022/01/18 08:03:10;;;;;;;;;;;;;;;0.46;100.00;99635.13;1622894;87;24622;-82
2022/01/18 08:05:37;;;;;;;;;;;;;;;0.51;100.00;99634.65;1626600;87;20249;-83
2022/01/18 08:08:05;;;;;;;;;;;;;;;0.56;100.00;99640.17;1617009;87;24828;-83
2022/01/18 08:10:32;;;;;;;;;;;;;;;0.60;100.00;99642.30;1625559;86;22583;-83
2022/01/18 08:13:01;;;;;;;;;;;;;;;0.63;100.00;99646.97;1624972;87;26064;-83
2022/01/18 08:15:28;;;;;;;;;;;;;;;0.65;100.00;99651.69;1618406;87;24437;-82
2022/01/18 08:17:56;;;;;;;;;;;;;;;0.69;100.00;99649.92;1619420;87;20529;-83
2022/01/18 08:20:22;;;;;;;;;;;;;;;0.75;100.00;99655.01;1619672;87;24873;-83
2022/01/18 08:22:48;;;;;;;;;;;;;;;0.77;100.00;99663.13;1630340;87;22046;-82
2022/01/18 08:25:16;;;;;;;;;;;;;;;0.83;100.00;99657.05;1639259;86;25995;-83
2022/01/18 08:27:42;;;;;;;;;;;;;;;0.84;100.00;99671.21;1642454;86;24567;-83
2022/01/18 08:30:10;;;;;;;;;;;;;;;0.86;100.00;99666.48;1643240;86;20233;-83
2022/01/18 08:32:41;;;;;;;;;;;;;;;0.89;100.00;99674.16;1621545;86;24669;-83
2022/01/18 08:35:05;;;;;;;;;;;;;;;0.90;100.00;99675.44;1622429;86;22771;-82
2022/01/18 08:37:31;;;;;;;;;;;;;;;0.91;100.00;99675.88;1643866;86;26111;-83
2022/01/18 08:39:57;;;;;;;;;;;;;;;0.92;100.00;99682.73;1643787;86;25019;-83
2022/01/18 08:42:23;;;;;;;;;;;;;;;0.94;100.00;99689.14;1622305;87;20554;-83
2022/01/18 08:44:49;;;;;;;;;;;;;;;0.94;100.00;99683.55;1640358;86;24907;-83
2022/01/18 08:47:17;;;;;;;;;;;;;;;0.90;100.00;99693.48;1639048;86;22168;-83
2022/01/18 08:49:44;;;;;;;;;;;;;;;0.92;100.00;99690.90;1641858;86;26011;-83
2022/01/18 08:52:10;;;;;;;;;;;;;;;0.94;100.00;99703.31;1639251;87;24485;-82
2022/01/18 08:54:36;;;;;;;;;;;;;;;1.01;100.00;99710.11;1642148;86;20281;-83
2022/01/18 08:57:02;;;;;;;;;;;;;;;1.05;100.00;99713.07;1639489;86;24808;-83
2022/01/18 08:59:30;;;;;;;;;;;;;;;1.09;100.00;99709.14;1639475;87;21942;-83
2022/01/18 09:01:58;;;;;;;;;;;;;;;1.10;100.00;99708.71;1639674;87;26608;-83
2022/01/18 09:04:24;;;;;;;;;;;;;;;1.09;100.00;99711.72;1640688;86;25432;-83
2022/01/18 09:06:52;;;;;;;;;;;;;;;1.09;100.00;99713.48;1639649;86;20443;-83
2022/01/18 09:09:19;;;;;;;;;;;;;;;1.10;100.00;99712.14;1641631;86;24887;-83
2022/01/18 09:11:45;;;;;;;;;;;;;;;1.14;100.00;99721.58;1636942;86;21957;-83
2022/01/18 09:14:14;;;;;;;;;;;;;;;1.19;100.00;99718.94;1639898;86;26004;-83
2022/01/18 09:16:40;;;;;;;;;;;;;;;1.21;100.00;99731.36;1639025;86;24479;-83
2022/01/18 09:19:06;;;;;;;;;;;;;;;1.21;100.00;99724.91;1638616;86;20298;-83
2022/01/18 09:21:33;;;;;;;;;;;;;;;1.21;100.00;99732.22;1637526;87;24729;-83
2022/01/18 09:24:00;;;;;;;;;;;;;;;1.23;100.00;99730.92;1636588;86;22079;-83
2022/01/18 09:26:26;;;;;;;;;;;;;;;1.30;100.00;99739.01;1631440;87;26066;-83
2022/01/18 09:28:52;;;;;;;;;;;;;;;1.33;100.00;99733.80;1635252;86;24525;-83
2022/01/18 09:31:19;;;;;;;;;;;;;;;1.37;100.00;99737.19;1634183;86;20405;-82
2022/01/18 09:33:45;;;;;;;;;;;;;;;1.37;100.00;99738.04;1634224;86;25018;-83
2022/01/18 09:36:11;;;;;;;;;;;;;;;1.32;100.00;99743.69;1627520;88;21969;-83
2022/01/18 09:38:37;;;;;;;;;;;;;;;1.29;100.00;99739.88;1632401;86;26080;-82
2022/01/18 09:41:10;;;;;;;;;;;;;;;1.32;100.00;99740.25;1630942;86;24394;-83
2022/01/18 09:43:34;;;;;;;;;;;;;;;1.33;100.00;99741.97;1637051;86;20260;-83
2022/01/18 09:46:00;;;;;;;;;;;;;;;1.35;100.00;99743.67;1627847;86;24784;-83
2022/01/18 09:48:26;;;;;;;;;;;;;;;1.39;100.00;99737.59;1625958;86;21990;-83
2022/01/18 09:50:55;;;;;;;;;;;;;;;1.47;100.00;99746.11;1627423;86;26193;-83
2022/01/18 09:53:21;;;;;;;;;;;;;;;1.48;100.00;99752.95;1627985;87;24493;-83
2022/01/18 09:55:52;;;;;;;;;;;;;;;1.49;100.00;99750.80;1628880;86;20255;-83
2022/01/18 09:58:18;;;;;;;;;;;;;;;1.49;100.00;99747.36;1633012;87;25439;-83
2022/01/18 10:00:44;;;;;;;;;;;;;;;1.50;100.00;99742.19;1630755;86;22072;-83
2022/01/18 10:03:29;;;;;;;;;;;;;;;1.50;100.00;99747.78;1623876;86;25978;-83
2022/01/18 10:05:55;;;;;;;;;;;;;;;1.53;100.00;99755.47;1601384;88;24615;-83
2022/01/18 10:08:22;;;;;;;;;;;;;;;1.51;100.00;99749.06;1626488;87;20311;-83
2022/01/18 10:10:50;;;;;;;;;;;;;;;1.54;100.00;99750.73;1626567;86;24597;-83
2022/01/18 10:13:29;;;;;;;;;;;;;;;1.59;100.00;99750.23;1629287;86;21996;-83
2022/01/18 10:16:15;;;;;;;;;;;;;;;1.56;100.00;99752.87;1632654;87;25540;-83
2022/01/18 10:18:47;;;;;;;;;;;;;;;1.54;100.00;99755.45;1603462;88;24638;-83
2022/01/18 10:21:16;;;;;;;;;;;;;;;1.55;100.00;99749.44;1628812;86;20769;-83
2022/01/18 10:23:48;;;;;;;;;;;;;;;1.55;100.00;99757.17;1612150;87;24768;-83
2022/01/18 10:26:17;;;;;;;;;;;;;;;1.53;100.00;99759.34;1640563;87;21475;-83
2022/01/18 10:28:43;;;;;;;;;;;;;;;1.56;100.00;99755.45;1645531;86;26790;-83
2022/01/18 10:31:33;;;;;;;;;;;;;;;1.58;100.00;99759.70;1639047;86;24496;-83
2022/01/18 10:34:14;;;;;;;;;;;;;;;1.56;100.00;99764.05;1642274;86;20225;-83
2022/01/18 10:36:52;;;;;;;;;;;;;;;1.56;100.00;99766.63;1637917;86;24919;-83
2022/01/18 10:39:26;;;;;;;;;;;;;;;1.58;100.00;99770.02;1640093;86;22816;-83
2022/01/18 10:41:58;;;;;;;;;;;;;;;1.65;100.00;99769.52;1635514;86;26790;-83
2022/01/18 10:44:23;;;;;;;;;;;;;;;1.76;100.00;99772.81;1631330;86;24453;-83
2022/01/18 10:46:53;;;;;;;;;;;;;;;1.83;100.00;99770.58;1633078;86;20234;-83
2022/01/18 10:49:27;;;;;;;;;;;;;;;1.87;100.00;99774.81;1638853;86;24838;-83
2022/01/18 10:51:58;;;;;;;;;;;;;;;1.86;100.00;99780.84;1641761;87;22073;-83
2022/01/18 10:54:26;;;;;;;;;;;;;;;1.88;100.00;99776.53;1632500;88;25967;-83
2022/01/18 10:56:52;;;;;;;;;;;;;;;1.93;100.00;99770.01;1631448;86;24570;-83
2022/01/18 10:59:22;;;;;;;;;;;;;;;1.94;100.00;99772.58;1632445;88;20226;-83
2022/01/18 11:02:08;;;;;;;;;;;;;;;1.94;100.00;99777.73;1640625;86;24725;-83
2022/01/18 11:04:34;;;;;;;;;;;;;;;1.95;100.00;99773.00;1650975;85;22124;-83
2022/01/18 11:07:02;;;;;;;;;;;;;;;1.94;100.00;99780.32;1646644;86;26076;-83
2022/01/18 11:09:28;;;;;;;;;;;;;;;1.97;100.00;99779.41;1652009;86;23884;-83
2022/01/18 11:11:54;;;;;;;;;;;;;;;2.01;100.00;99781.09;1656272;85;20278;-83
2022/01/18 11:14:26;;;;;;;;;;;;;;;2.08;100.00;99779.68;1637795;86;24575;-83
2022/01/18 11:16:50;;;;;;;;;;;;;;;2.12;100.00;99777.92;1626408;86;21882;-83
2022/01/18 11:19:39;;;;;;;;;;;;;;;2.17;100.00;99771.40;1635330;86;26250;-83
2022/01/18 11:21:46;;;;;;;;;;;;;;;2.18;100.00;99776.55;1628571;87;24525;-83
2022/01/18 11:24:14;;;;;;;;;;;;;;;2.18;100.00;99770.53;1640270;86;20294;-84
2022/01/18 11:26:41;;;;;;;;;;;;;;;2.15;100.00;99777.01;1628506;86;24839;-83
2022/01/18 11:29:08;;;;;;;;;;;;;;;2.13;100.00;99778.31;1626456;86;22146;-83
2022/01/18 11:31:34;;;;;;;;;;;;;;;2.13;100.00;99783.48;1623139;86;26002;-83
2022/01/18 11:34:01;;;;;;;;;;;;;;;2.09;100.00;99786.98;1634515;86;24516;-83
2022/01/18 11:36:29;;;;;;;;;;;;;;;2.02;100.00;99784.06;1630512;86;20344;-83
2022/01/18 11:38:57;;;;;;;;;;;;;;;2.00;100.00;99781.53;1625938;87;24829;-84
2022/01/18 11:41:24;;;;;;;;;;;;;;;2.06;100.00;99780.16;1631087;87;22246;-84
2022/01/18 11:43:51;;;;;;;;;;;;;;;2.12;100.00;99775.78;1635798;86;26185;-84
2022/01/18 11:46:19;;;;;;;;;;;;;;;2.14;100.00;99771.42;1630155;86;24398;-84
2022/01/18 11:48:47;;;;;;;;;;;;;;;2.20;100.00;99772.63;1629723;86;20186;-84
2022/01/18 11:51:17;;;;;;;;;;;;;;;2.21;100.00;99774.34;1601762;88;24816;-83
2022/01/18 11:56:31;;;;;;;;;;;;;;;2.18;100.00;99779.56;1617620;88;26009;-83
2022/01/18 11:59:14;;;;;;;;;;;;;;;2.12;100.00;99788.69;1563758;90;24629;-83
2022/01/18 12:01:48;;;;;;;;;;;;;;;2.05;100.00;99782.31;1626558;88;20224;-84
2022/01/18 12:04:16;;;;;;;;;;;;;;;2.03;100.00;99788.36;1636971;86;24834;-83
2022/01/18 12:06:46;;;;;;;;;;;;;;;2.03;100.00;99786.64;1624947;86;21986;-84
2022/01/18 12:09:32;;;;;;;;;;;;;;;2.02;100.00;99793.11;1604827;88;26004;-83
2022/01/18 12:11:59;;;;;;;;;;;;;;;2.00;100.00;99795.73;1600206;88;24610;-83
2022/01/18 12:14:32;;;;;;;;;;;;;;;1.97;100.00;99801.34;1619660;88;21275;-83
2022/01/18 12:17:15;;;;;;;;;;;;;;;1.95;100.00;99806.56;1631395;86;25547;-83
2022/01/18 12:19:44;;;;;;;;;;;;;;;1.97;100.00;99807.37;1610447;87;22016;-84
2022/01/18 12:22:11;;;;;;;;;;;;;;;2.00;100.00;99809.92;1630321;86;26031;-83
2022/01/18 12:24:37;;;;;;;;;;;;;;;1.97;100.00;99815.55;1633801;87;24548;-84
2022/01/18 12:27:22;;;;;;;;;;;;;;;1.92;100.00;99813.03;1626763;86;20312;-83
2022/01/18 12:30:14;;;;;;;;;;;;;;;1.86;100.00;99813.54;1626123;86;25623;-83
2022/01/18 12:32:56;;;;;;;;;;;;;;;1.81;100.00;99823.07;1626324;86;22041;-83
2022/01/18 12:35:23;;;;;;;;;;;;;;;1.79;100.00;99819.24;1627728;86;26248;-84
2022/01/18 12:37:48;;;;;;;;;;;;;;;1.76;100.00;99828.30;1626619;87;24642;-83
2022/01/18 12:40:25;;;;;;;;;;;;;;;1.76;100.00;99831.31;1626733;87;20290;-83
2022/01/18 12:45:30;;;;;;;;;;;;;;;1.71;100.00;99826.64;1626970;86;22040;-83
2022/01/18 12:47:59;;;;;;;;;;;;;;;1.70;100.00;99823.20;1627454;86;26866;-83
2022/01/18 12:50:39;;;;;;;;;;;;;;;1.71;100.00;99825.34;1626845;86;24419;-83
2022/01/18 12:53:07;;;;;;;;;;;;;;;1.73;100.00;99830.92;1629849;87;20537;-83
2022/01/18 12:55:45;;;;;;;;;;;;;;;1.74;100.00;99831.34;1624737;88;24848;-83
2022/01/18 12:58:16;;;;;;;;;;;;;;;1.76;100.00;99831.31;1632543;86;22142;-83
2022/01/18 13:00:49;;;;;;;;;;;;;;;1.75;100.00;99839.48;1629725;86;27101;-83
2022/01/18 13:03:26;;;;;;;;;;;;;;;1.73;100.00;99834.80;1625160;87;24527;-83
2022/01/18 13:05:56;;;;;;;;;;;;;;;1.75;100.00;99834.32;1625467;87;20268;-83
2022/01/18 13:08:24;;;;;;;;;;;;;;;1.72;100.00;99836.09;1611415;87;24904;-83
2022/01/18 13:10:51;;;;;;;;;;;;;;;1.76;100.00;99840.34;1621216;87;22094;-83
2022/01/18 13:13:20;;;;;;;;;;;;;;;1.79;100.00;99834.73;1634010;86;25931;-82
2022/01/18 13:24:41;;;;;;;;;;;;;;;1.92;100.00;99840.56;1635525;87;22106;-83
2022/01/18 13:26:34;;;;;;;;;;;;;;;1.96;100.00;99845.70;1626768;85;26708;-83
2022/01/18 13:29:18;;;;;;;;;;;;;;;1.95;100.00;99849.15;1630563;85;24180;-83
2022/01/18 13:31:48;;;;;;;;;;;;;;;1.95;100.00;99845.28;1628249;87;20221;-83
2022/01/18 13:34:16;;;;;;;;;;;;;;;1.95;100.00;99840.55;1628935;86;24943;-83
2022/01/18 13:36:49;;;;;;;;;;;;;;;1.97;100.00;99847.38;1627484;88;22036;-83
2022/01/18 13:39:28;;;;;;;;;;;;;;;1.94;100.00;99850.45;1613519;87;26106;-83
2022/01/18 13:41:55;;;;;;;;;;;;;;;1.88;100.00;99850.09;1587357;89;24529;-82
2022/01/18 13:44:22;;;;;;;;;;;;;;;1.88;100.00;99855.69;1580948;88;20293;-83
2022/01/18 13:46:48;;;;;;;;;;;;;;;1.86;100.00;99847.95;1584997;89;24833;-83
2022/01/18 13:49:14;;;;;;;;;;;;;;;1.86;100.00;99858.27;1610752;87;22037;-83
2022/01/18 13:51:42;;;;;;;;;;;;;;;1.89;100.00;99863.42;1586615;89;26102;-83
2022/01/18 13:54:10;;;;;;;;;;;;;;;1.88;100.00;99866.02;1589711;89;24593;-83
2022/01/18 13:56:41;;;;;;;;;;;;;;;1.91;100.00;99868.57;1632911;87;20173;-83
2022/01/18 13:59:09;;;;;;;;;;;;;;;1.92;99.98;99864.66;1608639;87;24773;-83
2022/01/18 14:01:37;;;;;;;;;;;;;;;1.87;99.84;99859.98;1589191;89;21996;-83
2022/01/18 14:04:16;;;;;;;;;;;;;;;1.78;99.63;99863.98;1583877;89;26895;-83